Time,TemperatureF,DewpointF,PressureIn,WindDirection,WindDirectionDegrees,WindSpeedMPH,WindSpeedGustMPH,Humidity,HourlyPrecipIn,Conditions,Clouds,dailyrainin,SoftwareType,DateUTC
2013-03-10 00:08:00,40.7,34.0,30.02,SSE,149,0.0,6.0,78,0.00,,,0.00,weatherlink.com 1.10,2013-03-10 05:08:00,
2013-03-10 00:23:00,40.7,34.0,30.01,SSE,158,3.0,5.0,78,0.00,,,0.00,weatherlink.com 1.10,2013-03-10 05:23:00,
2013-03-10 00:38:00,41.0,35.0,30.00,South,174,2.0,4.0,78,0.00,,,0.00,weatherlink.com 1.10,2013-03-10 05:38:00,
2013-03-10 00:53:00,41.2,35.0,30.00,WSW,245,2.0,4.0,77,0.00,,,0.00,weatherlink.com 1.10,2013-03-10 05:53:00,
2013-03-10 01:08:00,41.2,35.0,29.99,SW,221,3.0,5.0,77,0.00,,,0.00,weatherlink.com 1.10,2013-03-10 06:08:00,
2013-03-10 01:23:00,41.4,35.0,29.99,SSE,150,1.0,5.0,77,0.00,,,0.00,weatherlink.com 1.10,2013-03-10 06:23:00,
2013-03-10 01:38:00,41.7,35.0,29.99,SE,131,1.0,6.0,76,0.00,,,0.00,weatherlink.com 1.10,2013-03-10 06:38:00,
2013-03-10 01:53:00,41.9,35.0,29.98,SSE,148,3.0,6.0,75,0.00,,,0.00,weatherlink.com 1.10,2013-03-10 06:53:00,
2013-03-10 03:08:00,41.9,35.0,29.98,SSW,205,1.0,4.0,75,0.00,,,0.00,weatherlink.com 1.10,2013-03-10 07:08:00,
2013-03-10 03:23:00,42.0,35.0,29.97,South,188,0.0,4.0,75,0.00,,,0.00,weatherlink.com 1.10,2013-03-10 07:23:00,
2013-03-10 03:38:00,41.9,35.0,29.97,SSE,158,1.0,5.0,75,0.00,,,0.00,weatherlink.com 1.10,2013-03-10 07:38:00,
2013-03-10 03:53:00,42.2,34.0,29.96,ESE,122,1.0,6.0,74,0.00,,,0.00,weatherlink.com 1.10,2013-03-10 07:53:00,
2013-03-10 04:08:00,42.3,35.0,29.96,SSE,155,2.0,5.0,74,0.00,,,0.00,weatherlink.com 1.10,2013-03-10 08:08:00,
2013-03-10 04:23:00,42.4,35.0,29.95,SSW,211,3.0,5.0,74,0.00,,,0.00,weatherlink.com 1.10,2013-03-10 08:23:00,
2013-03-10 04:38:00,42.2,34.0,29.94,SSE,160,2.0,6.0,74,0.00,,,0.00,weatherlink.com 1.10,2013-03-10 08:38:00,
2013-03-10 04:53:00,41.9,35.0,29.94,SSE,149,2.0,4.0,75,0.00,,,0.00,weatherlink.com 1.10,2013-03-10 08:53:00,
2013-03-10 05:08:00,42.0,35.0,29.95,SSE,155,0.0,1.0,75,0.00,,,0.00,weatherlink.com 1.10,2013-03-10 09:08:00,
2013-03-10 05:23:00,42.1,35.0,29.95,SSE,165,0.0,3.0,75,0.00,,,0.00,weatherlink.com 1.10,2013-03-10 09:23:00,
2013-03-10 05:38:00,42.2,35.0,29.96,ESE,110,0.0,4.0,75,0.00,,,0.00,weatherlink.com 1.10,2013-03-10 09:38:00,
2013-03-10 05:53:00,42.3,35.0,29.96,SSE,150,1.0,2.0,75,0.00,,,0.00,weatherlink.com 1.10,2013-03-10 09:53:00,
2013-03-10 06:08:00,41.6,37.0,29.95,SSE,159,0.0,2.0,83,0.01,,,0.01,weatherlink.com 1.10,2013-03-10 10:08:00,
2013-03-10 06:23:00,40.4,37.0,29.95,ESE,122,1.0,4.0,87,0.02,,,0.02,weatherlink.com 1.10,2013-03-10 10:23:00,
2013-03-10 06:39:00,40.4,38.0,29.96,South,170,2.0,4.0,90,0.05,,,0.05,weatherlink.com 1.10,2013-03-10 10:39:00,
2013-03-10 06:53:00,40.0,38.0,29.96,South,186,0.0,3.0,91,0.07,,,0.07,weatherlink.com 1.10,2013-03-10 10:53:00,
2013-03-10 07:08:00,40.0,38.0,29.96,SSE,147,0.0,4.0,93,0.08,,,0.09,weatherlink.com 1.10,2013-03-10 11:08:00,
2013-03-10 07:23:00,39.7,38.0,29.96,SSE,149,0.0,1.0,94,0.08,,,0.10,weatherlink.com 1.10,2013-03-10 11:23:00,
2013-03-10 07:38:00,40.0,39.0,29.96,East,82,0.0,1.0,95,0.05,,,0.10,weatherlink.com 1.10,2013-03-10 11:38:00,
2013-03-10 07:53:00,40.2,39.0,29.96,ESE,120,1.0,2.0,95,0.03,,,0.10,weatherlink.com 1.10,2013-03-10 11:53:00,
2013-03-10 08:08:00,39.9,38.0,29.95,SSE,158,1.0,1.0,94,0.01,,,0.10,weatherlink.com 1.10,2013-03-10 12:08:00,
2013-03-10 08:23:00,39.5,38.0,29.95,SSE,158,0.0,0.0,94,0.00,,,0.10,weatherlink.com 1.10,2013-03-10 12:23:00,
2013-03-10 08:39:00,39.6,38.0,29.95,SE,134,0.0,2.0,95,0.00,,,0.10,weatherlink.com 1.10,2013-03-10 12:39:00,
2013-03-10 08:54:00,40.1,39.0,29.94,SSE,150,1.0,3.0,94,0.00,,,0.10,weatherlink.com 1.10,2013-03-10 12:54:00,
2013-03-10 09:09:00,40.8,39.0,29.94,WSW,250,1.0,4.0,93,0.00,,,0.10,weatherlink.com 1.10,2013-03-10 13:09:00,
2013-03-10 09:24:00,41.1,39.0,29.93,SE,129,0.0,4.0,92,0.00,,,0.10,weatherlink.com 1.10,2013-03-10 13:24:00,
2013-03-10 09:39:00,42.0,39.0,29.93,South,181,0.0,7.0,89,0.00,,,0.10,weatherlink.com 1.10,2013-03-10 13:39:00,
2013-03-10 09:54:00,42.2,39.0,29.92,ENE,67,1.0,2.0,89,0.00,,,0.10,weatherlink.com 1.10,2013-03-10 13:54:00,
2013-03-10 10:09:00,42.9,39.0,29.92,South,188,0.0,5.0,86,0.00,,,0.10,weatherlink.com 1.10,2013-03-10 14:09:00,
2013-03-10 10:24:00,44.3,39.0,29.91,SW,224,1.0,3.0,83,0.00,,,0.10,weatherlink.com 1.10,2013-03-10 14:24:00,
2013-03-10 10:39:00,45.2,40.0,29.91,ESE,110,1.0,3.0,81,0.00,,,0.10,weatherlink.com 1.10,2013-03-10 14:39:00,
2013-03-10 10:54:00,45.4,40.0,29.91,SE,137,1.0,5.0,81,0.00,,,0.10,weatherlink.com 1.10,2013-03-10 14:54:00,
2013-03-10 11:09:00,45.5,40.0,29.91,SE,145,1.0,3.0,81,0.00,,,0.10,weatherlink.com 1.10,2013-03-10 15:09:00,
2013-03-10 11:24:00,45.3,40.0,29.90,SSE,160,2.0,4.0,81,0.00,,,0.10,weatherlink.com 1.10,2013-03-10 15:24:00,
2013-03-10 11:39:00,46.2,40.0,29.90,SE,137,2.0,4.0,78,0.00,,,0.10,weatherlink.com 1.10,2013-03-10 15:39:00,
2013-03-10 11:54:00,47.7,40.0,29.90,SE,136,2.0,7.0,75,0.00,,,0.10,weatherlink.com 1.10,2013-03-10 15:54:00,
2013-03-10 12:09:00,48.9,40.0,29.91,SE,125,4.0,10.0,72,0.00,,,0.10,weatherlink.com 1.10,2013-03-10 16:09:00,
2013-03-10 12:24:00,50.4,41.0,29.91,SSE,148,4.0,11.0,69,0.00,,,0.10,weatherlink.com 1.10,2013-03-10 16:24:00,
2013-03-10 12:39:00,51.8,41.0,29.91,WSW,252,1.0,7.0,67,0.00,,,0.10,weatherlink.com 1.10,2013-03-10 16:39:00,
2013-03-10 12:54:00,53.1,42.0,29.91,SSW,193,5.0,9.0,65,0.00,,,0.10,weatherlink.com 1.10,2013-03-10 16:54:00,
2013-03-10 13:09:00,53.6,42.0,29.89,West,262,7.0,9.0,64,0.00,,,0.10,weatherlink.com 1.10,2013-03-10 17:09:00,
2013-03-10 13:24:00,53.4,42.0,29.89,South,190,3.0,5.0,65,0.00,,,0.10,weatherlink.com 1.10,2013-03-10 17:24:00,
2013-03-10 13:39:00,53.3,42.0,29.90,SW,226,1.0,5.0,66,0.00,,,0.10,weatherlink.com 1.10,2013-03-10 17:39:00,
2013-03-10 13:54:00,53.2,42.0,29.89,SSE,159,1.0,7.0,66,0.00,,,0.10,weatherlink.com 1.10,2013-03-10 17:54:00,
2013-03-10 14:09:00,53.5,42.0,29.90,SW,215,5.0,13.0,66,0.00,,,0.10,weatherlink.com 1.10,2013-03-10 18:09:00,
2013-03-10 14:24:00,54.3,43.0,29.89,East,97,3.0,7.0,65,0.00,,,0.10,weatherlink.com 1.10,2013-03-10 18:24:00,
2013-03-10 14:39:00,54.3,43.0,29.91,SSE,151,3.0,10.0,65,0.00,,,0.10,weatherlink.com 1.10,2013-03-10 18:39:00,
2013-03-10 14:55:00,54.3,43.0,29.89,SSW,195,0.0,5.0,67,0.00,,,0.10,weatherlink.com 1.10,2013-03-10 18:55:00,
2013-03-10 15:10:00,55.7,44.0,29.88,SW,222,1.0,4.0,65,0.00,,,0.10,weatherlink.com 1.10,2013-03-10 19:10:00,
2013-03-10 15:25:00,56.5,45.0,29.86,South,188,2.0,5.0,65,0.00,,,0.10,weatherlink.com 1.10,2013-03-10 19:25:00,
2013-03-10 15:40:00,56.7,45.0,29.84,SE,134,1.0,7.0,64,0.00,,,0.10,weatherlink.com 1.10,2013-03-10 19:40:00,
2013-03-10 15:55:00,57.2,46.0,29.83,South,177,0.0,7.0,66,0.00,,,0.10,weatherlink.com 1.10,2013-03-10 19:55:00,
2013-03-10 16:10:00,57.3,46.0,29.84,SSW,212,3.0,4.0,65,0.00,,,0.10,weatherlink.com 1.10,2013-03-10 20:10:00,
2013-03-10 16:25:00,57.4,46.0,29.84,WSW,246,4.0,7.0,66,0.00,,,0.10,weatherlink.com 1.10,2013-03-10 20:25:00,
2013-03-10 16:40:00,57.8,46.0,29.84,SE,142,1.0,8.0,66,0.00,,,0.10,weatherlink.com 1.10,2013-03-10 20:40:00,
2013-03-10 16:55:00,56.9,45.0,29.84,SW,228,4.0,8.0,64,0.00,,,0.10,weatherlink.com 1.10,2013-03-10 20:55:00,
2013-03-10 17:10:00,56.3,45.0,29.84,SE,129,2.0,5.0,67,0.00,,,0.10,weatherlink.com 1.10,2013-03-10 21:10:00,
2013-03-10 17:25:00,55.7,45.0,29.84,ENE,69,1.0,7.0,68,0.00,,,0.10,weatherlink.com 1.10,2013-03-10 21:25:00,
2013-03-10 17:40:00,55.1,45.0,29.84,NW,312,1.0,8.0,69,0.00,,,0.10,weatherlink.com 1.10,2013-03-10 21:40:00,
2013-03-10 17:55:00,54.8,44.0,29.82,NW,309,1.0,7.0,68,0.00,,,0.10,weatherlink.com 1.10,2013-03-10 21:55:00,
2013-03-10 18:10:00,54.5,44.0,29.80,South,169,1.0,9.0,68,0.00,,,0.10,weatherlink.com 1.10,2013-03-10 22:10:00,
2013-03-10 18:25:00,54.1,44.0,29.80,SSE,149,1.0,6.0,68,0.00,,,0.10,weatherlink.com 1.10,2013-03-10 22:25:00,
2013-03-10 18:40:00,54.0,43.0,29.79,SE,134,3.0,8.0,67,0.00,,,0.10,weatherlink.com 1.10,2013-03-10 22:40:00,
2013-03-10 18:55:00,53.7,43.0,29.80,SE,127,2.0,6.0,67,0.00,,,0.10,weatherlink.com 1.10,2013-03-10 22:55:00,
2013-03-10 19:10:00,53.6,43.0,29.81,SSE,164,3.0,6.0,67,0.00,,,0.10,weatherlink.com 1.10,2013-03-10 23:10:00,
2013-03-10 19:25:00,53.4,43.0,29.81,SE,125,1.0,6.0,68,0.00,,,0.10,weatherlink.com 1.10,2013-03-10 23:25:00,
2013-03-10 19:40:00,53.1,43.0,29.81,SSW,208,4.0,7.0,69,0.00,,,0.10,weatherlink.com 1.10,2013-03-10 23:40:00,
2013-03-10 19:55:00,53.0,43.0,29.81,SE,139,2.0,10.0,69,0.00,,,0.10,weatherlink.com 1.10,2013-03-10 23:55:00,
2013-03-10 20:10:00,53.2,43.0,29.80,SE,133,2.0,8.0,68,0.00,,,0.10,weatherlink.com 1.10,2013-03-11 00:10:00,
2013-03-10 20:25:00,52.8,43.0,29.80,ESE,113,2.0,6.0,69,0.00,,,0.10,weatherlink.com 1.10,2013-03-11 00:25:00,
2013-03-10 20:40:00,52.4,42.0,29.81,South,172,1.0,5.0,69,0.00,,,0.10,weatherlink.com 1.10,2013-03-11 00:40:00,
2013-03-10 20:55:00,50.8,44.0,29.81,East,93,1.0,4.0,78,0.01,,,0.11,weatherlink.com 1.10,2013-03-11 00:55:00,
2013-03-10 21:10:00,49.8,44.0,29.81,ESE,103,2.0,7.0,81,0.02,,,0.12,weatherlink.com 1.10,2013-03-11 01:10:00,
2013-03-10 21:25:00,50.0,44.0,29.79,ESE,113,7.0,9.0,79,0.02,,,0.12,weatherlink.com 1.10,2013-03-11 01:25:00,
2013-03-10 21:40:00,49.9,44.0,29.77,SSE,157,4.0,9.0,80,0.02,,,0.12,weatherlink.com 1.10,2013-03-11 01:40:00,
2013-03-10 21:55:00,50.1,44.0,29.76,South,170,4.0,7.0,80,0.01,,,0.12,weatherlink.com 1.10,2013-03-11 01:55:00,
2013-03-10 22:10:00,51.0,44.0,29.76,ESE,115,4.0,12.0,77,0.01,,,0.13,weatherlink.com 1.10,2013-03-11 02:10:00,
2013-03-10 22:25:00,51.6,44.0,29.75,East,82,5.0,11.0,74,0.01,,,0.13,weatherlink.com 1.10,2013-03-11 02:25:00,
2013-03-10 22:40:00,51.9,43.0,29.76,SW,219,3.0,10.0,72,0.01,,,0.13,weatherlink.com 1.10,2013-03-11 02:40:00,
2013-03-10 22:55:00,52.4,42.0,29.76,SE,131,5.0,9.0,69,0.01,,,0.13,weatherlink.com 1.10,2013-03-11 02:55:00,
2013-03-10 23:10:00,53.4,42.0,29.76,SW,228,6.0,10.0,65,0.00,,,0.13,weatherlink.com 1.10,2013-03-11 03:10:00,
2013-03-10 23:25:00,54.0,42.0,29.75,SSE,167,5.0,12.0,63,0.00,,,0.13,weatherlink.com 1.10,2013-03-11 03:25:00,
2013-03-10 23:40:00,53.6,42.0,29.75,SE,143,2.0,9.0,64,0.00,,,0.13,weatherlink.com 1.10,2013-03-11 03:40:00,
2013-03-10 23:55:00,53.3,41.0,29.75,SSE,150,7.0,10.0,64,0.00,,,0.13,weatherlink.com 1.10,2013-03-11 03:55:00,